首页
METAR-TAF:

METAR-TAF

机场 :

Salluit, 魁北克, 加拿大

纬度: 62-11N, 经度: 075-40W, 海拔: 226米

当前天气观测

该预报发布于3小时和3分钟前的21:00 UTC
风速16节,风向东北
温度 -1°C
湿度 86%
气压 1021 hPa
能見度: 12.9公里
多云层高于500英尺
多云层高于11000英尺

METAR: CYZG 202100Z 05016KT 8SM BKN005 BKN110 M01/M03 A3014 RMK SF5AC1 AC TR LST STFD OB/ NXT 211200Z SLP228

时间: 20:03 (00:03 UTC)

预报

该预报发布于3小时和57分钟前的20:06 UTC
预报有效从20日的 20点(UTC)到 20日的 21点(UTC)
风速15节,风向北转东北
能見度: 10公里
少量云层高于1000英尺
少量云层高于11000英尺

TAF: CYZG 202006Z 2020/2021 03015KT P6SM FEW010 FEW110 RMK NXT FCST BY 211400Z

超过4000个机场的气象观测和天气预报(METAR&TAF报告)。

可查询的气象台以黄色和红色小点在地图上表示。

将鼠标移到小点上方,可查看气象台名称。

然后点击查看天气观测和预报。

如需切换地图:点击带黑十字的绿色按钮放大地图;点击带横线的绿色按钮缩小地图;或者点击绿色箭头查看邻近地区的地图。


METAR-TAF: